Time;durP1;ratioP1;P1;durP2;ratioP2;P2;SDS_P1;SDS_P2;PMS_P1;PMS_P2;Temp;Humidity;BMP_temperature;BMP_pressure;BME280_temperature;BME280_humidity;BME280_pressure;Samples;Min_cycle;Max_cycle;Signal;HPM_P1;HPM_P2
2024/02/14 00:01:55;;;;;;;13.40;1.07;;;9.20;38.60;;;;;;5087830;28;20194;-83
2024/02/14 00:04:21;;;;;;;13.53;1.10;;;9.20;37.60;;;;;;5089298;28;20403;-83
2024/02/14 00:06:47;;;;;;;16.47;1.30;;;9.10;30.60;;;;;;5089159;28;20165;-81
2024/02/14 00:09:13;;;;;;;17.00;1.20;;;9.10;33.60;;;;;;5052904;28;20707;-83
2024/02/14 00:11:38;;;;;;;14.50;1.37;;;9.20;34.20;;;;;;5087547;28;20192;-83
2024/02/14 00:14:04;;;;;;;14.60;1.50;;;9.10;30.60;;;;;;5069684;28;20165;-83
2024/02/14 00:16:30;;;;;;;14.60;1.47;;;9.20;32.50;;;;;;5087123;28;20161;-83
2024/02/14 00:18:56;;;;;;;14.50;1.50;;;9.20;31.40;;;;;;5087047;28;20200;-83
2024/02/14 00:21:23;;;;;;;14.85;1.63;;;9.20;32.60;;;;;;5086733;28;20195;-83
2024/02/14 00:23:49;;;;;;;13.80;1.48;;;9.10;38.10;;;;;;5086627;28;20160;-83
2024/02/14 00:26:15;;;;;;;15.07;1.43;;;9.10;43.80;;;;;;5086555;28;20244;-82
2024/02/14 00:28:41;;;;;;;13.83;1.27;;;9.10;43.60;;;;;;5087134;28;20425;-82
2024/02/14 00:31:06;;;;;;;13.97;1.00;;;9.10;46.40;;;;;;5085925;28;20161;-83
2024/02/14 00:33:32;;;;;;;16.53;1.50;;;9.10;51.60;;;;;;5068291;28;20172;-83
2024/02/14 00:35:58;;;;;;;13.87;1.30;;;9.10;49.40;;;;;;5086970;28;20221;-83
2024/02/14 00:38:23;;;;;;;13.43;1.00;;;9.10;48.70;;;;;;5088470;28;20204;-83
2024/02/14 00:40:49;;;;;;;17.70;1.40;;;9.10;55.00;;;;;;5087038;28;20161;-82
2024/02/14 00:43:15;;;;;;;14.03;0.90;;;9.10;56.20;;;;;;5088924;28;20214;-82
2024/02/14 00:45:40;;;;;;;13.63;1.30;;;9.10;69.30;;;;;;5085687;28;20165;-82
2024/02/14 00:48:07;;;;;;;16.20;1.63;;;9.10;80.40;;;;;;5084916;28;20218;-83
2024/02/14 00:50:33;;;;;;;14.07;1.50;;;9.10;79.60;;;;;;5085919;28;20649;-82
2024/02/14 00:52:59;;;;;;;13.85;1.25;;;9.10;82.40;;;;;;5068202;28;20197;-81
2024/02/14 00:55:25;;;;;;;13.77;1.35;;;9.00;84.10;;;;;;5067329;28;20165;-83
2024/02/14 00:57:51;;;;;;;13.73;1.30;;;9.10;87.10;;;;;;5084384;28;20191;-82
2024/02/14 01:00:17;;;;;;;15.17;1.73;;;9.00;85.00;;;;;;5067332;28;20168;-83
2024/02/14 01:02:43;;;;;;;14.60;1.55;;;9.10;83.60;;;;;;5087191;28;20164;-82
2024/02/14 01:05:09;;;;;;;15.05;1.50;;;9.10;81.20;;;;;;5068051;28;20172;-83
2024/02/14 01:07:35;;;;;;;13.73;1.00;;;9.00;82.20;;;;;;5085623;28;20209;-83
2024/02/14 01:10:02;;;;;;;14.25;1.42;;;9.00;86.30;;;;;;5084199;28;20399;-83
2024/02/14 01:12:29;;;;;;;15.25;1.27;;;9.00;87.70;;;;;;5068695;28;20188;-82
2024/02/14 01:14:55;;;;;;;13.90;1.20;;;9.10;86.10;;;;;;5085798;28;20182;-82
2024/02/14 01:17:21;;;;;;;13.60;1.10;;;9.10;86.20;;;;;;5084497;28;20184;-82
2024/02/14 01:19:47;;;;;;;14.52;1.40;;;9.10;90.00;;;;;;5081280;28;20399;-81
2024/02/14 01:22:16;;;;;;;14.13;1.20;;;9.10;90.40;;;;;;5079757;28;20168;-81
2024/02/14 01:24:44;;;;;;;15.65;1.27;;;9.10;91.20;;;;;;5081168;28;20638;-82
2024/02/14 01:27:13;;;;;;;14.45;1.10;;;9.10;91.10;;;;;;5079774;28;20184;-81
2024/02/14 01:29:39;;;;;;;13.75;1.13;;;9.10;91.10;;;;;;5062701;28;20179;-81
2024/02/14 01:32:06;;;;;;;14.90;1.20;;;9.10;92.00;;;;;;5078566;28;20196;-81
2024/02/14 01:34:32;;;;;;;14.07;1.30;;;9.10;92.40;;;;;;5079837;28;20163;-81
2024/02/14 01:36:58;;;;;;;13.63;1.00;;;9.20;92.60;;;;;;5062050;28;20161;-81
2024/02/14 01:39:23;;;;;;;13.80;1.40;;;9.20;91.70;;;;;;5083887;28;20434;-83
2024/02/14 01:41:49;;;;;;;14.20;1.27;;;9.20;92.00;;;;;;5081114;28;20227;-82
2024/02/14 01:44:16;;;;;;;14.30;1.20;;;9.20;92.10;;;;;;5079239;28;20634;-82
2024/02/14 01:46:43;;;;;;;14.10;1.00;;;9.20;92.00;;;;;;5080533;28;20248;-82
2024/02/14 01:49:11;;;;;;;13.27;1.00;;;9.20;94.90;;;;;;5079171;28;20553;-83
2024/02/14 01:51:39;;;;;;;13.55;1.00;;;9.20;94.70;;;;;;5079695;28;20188;-82
2024/02/14 01:54:06;;;;;;;13.80;1.02;;;9.30;94.10;;;;;;5079957;28;20190;-83
2024/02/14 01:56:32;;;;;;;14.25;1.30;;;9.30;93.60;;;;;;5061073;28;20175;-82
2024/02/14 01:59:00;;;;;;;14.10;1.20;;;9.30;94.20;;;;;;5079034;28;20180;-82
2024/02/14 02:01:26;;;;;;;13.50;0.90;;;9.30;94.50;;;;;;5061615;28;20168;-82
2024/02/14 02:03:52;;;;;;;13.45;0.90;;;9.20;96.40;;;;;;5078637;28;20152;-82
2024/02/14 02:06:18;;;;;;;14.20;0.93;;;9.20;97.30;;;;;;5078447;28;20164;-81
2024/02/14 02:08:44;;;;;;;15.03;1.27;;;9.20;98.70;;;;;;5079516;28;20263;-81
2024/02/14 02:11:10;;;;;;;14.40;1.27;;;9.20;99.90;;;;;;5080862;28;20166;-82
2024/02/14 02:13:38;;;;;;;15.37;1.17;;;9.20;99.90;;;;;;5078699;28;20413;-81
2024/02/14 02:16:05;;;;;;;17.33;1.35;;;9.20;99.90;;;;;;5080117;28;20161;-82
2024/02/14 02:18:32;;;;;;;13.75;1.13;;;9.20;99.90;;;;;;5062323;28;20669;-81
2024/02/14 02:20:58;;;;;;;14.00;1.08;;;9.20;99.90;;;;;;5078393;28;20242;-81
2024/02/14 02:23:23;;;;;;;13.60;1.03;;;9.10;99.90;;;;;;5059838;28;20200;-82
2024/02/14 02:25:50;;;;;;;13.50;1.10;;;9.10;99.90;;;;;;5078800;28;20169;-80
2024/02/14 02:28:16;;;;;;;13.20;0.90;;;9.10;99.90;;;;;;5077869;28;20250;-82
2024/02/14 02:30:42;;;;;;;13.55;1.10;;;9.10;99.90;;;;;;5079458;28;20214;-81
2024/02/14 02:33:08;;;;;;;13.40;1.10;;;9.10;99.90;;;;;;5078531;28;20188;-81
2024/02/14 02:35:34;;;;;;;13.90;1.20;;;9.10;99.90;;;;;;5082153;28;20410;-82
2024/02/14 02:38:01;;;;;;;13.40;0.90;;;9.20;99.90;;;;;;5063509;28;20454;-82
2024/02/14 02:40:29;;;;;;;15.05;1.10;;;9.10;99.90;;;;;;5081378;28;20317;-82
2024/02/14 02:42:55;;;;;;;13.40;1.00;;;9.20;99.90;;;;;;5081555;28;20161;-82
2024/02/14 02:45:21;;;;;;;13.93;1.40;;;9.20;99.90;;;;;;5064086;28;20177;-82
2024/02/14 02:47:47;;;;;;;14.43;1.40;;;9.20;99.90;;;;;;5064090;28;20565;-82
2024/02/14 02:50:13;;;;;;;13.98;1.10;;;9.20;99.90;;;;;;5081985;28;20996;-81
2024/02/14 02:52:41;;;;;;;13.27;1.00;;;9.20;99.90;;;;;;5082348;28;20257;-82
2024/02/14 02:55:07;;;;;;;13.45;0.90;;;9.30;99.90;;;;;;5064258;28;20646;-82
2024/02/14 02:57:34;;;;;;;15.27;1.40;;;9.30;99.90;;;;;;5066741;28;20195;-81
2024/02/14 03:00:00;;;;;;;13.85;1.08;;;9.30;99.90;;;;;;5082294;28;20761;-81
2024/02/14 03:02:26;;;;;;;14.13;1.50;;;9.30;99.90;;;;;;5081663;28;20164;-82
2024/02/14 03:04:52;;;;;;;13.30;1.07;;;9.30;99.90;;;;;;5063952;28;20164;-82
2024/02/14 03:07:19;;;;;;;13.07;0.90;;;9.30;99.90;;;;;;5081026;28;20505;-81
2024/02/14 03:09:45;;;;;;;13.57;1.10;;;9.30;99.90;;;;;;5081347;28;20579;-81
2024/02/14 03:12:10;;;;;;;13.53;1.10;;;9.30;99.90;;;;;;5082525;28;20192;-81
2024/02/14 03:14:36;;;;;;;13.27;0.93;;;9.40;99.90;;;;;;5081207;28;20192;-81
2024/02/14 03:17:03;;;;;;;13.20;1.07;;;9.40;99.90;;;;;;5081212;28;20168;-81
2024/02/14 03:19:29;;;;;;;13.57;1.20;;;9.40;99.90;;;;;;5081480;28;20220;-81
2024/02/14 03:21:56;;;;;;;14.35;1.40;;;9.40;99.90;;;;;;5081045;28;20709;-83
2024/02/14 03:24:25;;;;;;;14.52;1.45;;;9.40;99.90;;;;;;5081068;28;20172;-82
2024/02/14 03:26:53;;;;;;;13.27;0.90;;;9.40;99.90;;;;;;5081028;28;20172;-83
2024/02/14 03:29:19;;;;;;;13.93;1.10;;;9.40;99.90;;;;;;5081073;28;20157;-82
2024/02/14 03:31:46;;;;;;;14.30;1.40;;;9.40;99.90;;;;;;5080610;28;20188;-82
2024/02/14 03:34:11;;;;;;;14.00;1.00;;;9.40;99.90;;;;;;5080641;28;20165;-82
2024/02/14 03:36:40;;;;;;;13.23;1.03;;;9.40;99.90;;;;;;5081817;28;20172;-82
2024/02/14 03:39:06;;;;;;;13.30;1.08;;;9.40;99.90;;;;;;5080159;28;20235;-82
2024/02/14 03:41:32;;;;;;;13.30;0.90;;;9.40;99.90;;;;;;5080515;28;20160;-82
2024/02/14 03:44:00;;;;;;;12.93;0.82;;;9.50;99.90;;;;;;5062599;28;20302;-82
2024/02/14 03:46:27;;;;;;;14.10;1.20;;;9.50;99.90;;;;;;5080637;28;20171;-83
2024/02/14 03:49:00;;;;;;;14.82;1.20;;;9.50;99.90;;;;;;5080982;28;20204;-82
2024/02/14 03:51:26;;;;;;;13.65;1.17;;;9.50;99.90;;;;;;5078439;28;20510;-82
2024/02/14 03:53:54;;;;;;;13.20;1.00;;;9.50;99.90;;;;;;5060789;28;20164;-82
2024/02/14 03:56:20;;;;;;;14.25;1.23;;;9.40;99.90;;;;;;5078476;28;20503;-81
2024/02/14 03:58:47;;;;;;;13.27;1.00;;;9.50;99.90;;;;;;5078682;28;20176;-81
2024/02/14 04:01:13;;;;;;;14.30;1.20;;;9.40;99.90;;;;;;5060199;28;20164;-82
2024/02/14 04:03:39;;;;;;;13.25;1.10;;;9.50;99.90;;;;;;5078886;28;20211;-81
2024/02/14 04:06:04;;;;;;;15.07;1.67;;;9.50;99.90;;;;;;5060761;28;20630;-81
2024/02/14 04:08:30;;;;;;;12.87;0.90;;;9.50;99.90;;;;;;5079403;28;20216;-82
2024/02/14 04:10:56;;;;;;;14.25;1.02;;;9.50;99.90;;;;;;5078514;28;20221;-81
2024/02/14 04:13:22;;;;;;;13.90;1.10;;;9.50;99.90;;;;;;5078113;28;20237;-82
2024/02/14 04:15:48;;;;;;;13.20;1.00;;;9.50;99.90;;;;;;5078648;28;20626;-81
2024/02/14 04:18:18;;;;;;;13.27;1.30;;;9.50;99.90;;;;;;5060101;28;20952;-82
2024/02/14 04:20:43;;;;;;;13.90;1.20;;;9.60;99.90;;;;;;5078167;28;20161;-82
2024/02/14 04:23:09;;;;;;;14.10;1.00;;;9.50;99.90;;;;;;5078346;28;20533;-81
2024/02/14 04:25:35;;;;;;;13.70;1.30;;;9.50;99.90;;;;;;5078261;28;20912;-82
2024/02/14 04:28:03;;;;;;;13.40;1.10;;;9.60;99.90;;;;;;5060269;28;20466;-81
2024/02/14 04:30:29;;;;;;;13.60;1.10;;;9.60;99.90;;;;;;5060265;28;20222;-82
2024/02/14 04:32:55;;;;;;;13.98;1.27;;;9.60;99.90;;;;;;5078354;28;20207;-81
2024/02/14 04:35:20;;;;;;;13.10;1.20;;;9.60;99.90;;;;;;5078695;28;20156;-82
2024/02/14 04:37:47;;;;;;;13.53;1.13;;;9.60;99.90;;;;;;5078313;28;20222;-82
2024/02/14 04:40:14;;;;;;;13.80;1.13;;;9.60;99.90;;;;;;5078471;28;20169;-82
2024/02/14 04:42:40;;;;;;;13.70;1.48;;;9.50;99.90;;;;;;5060401;28;20558;-81
2024/02/14 04:45:06;;;;;;;13.23;1.15;;;9.60;99.90;;;;;;5060198;28;20317;-81
2024/02/14 04:47:32;;;;;;;14.73;1.42;;;9.60;99.90;;;;;;5060810;28;20564;-82
2024/02/14 04:49:59;;;;;;;14.77;1.20;;;9.50;99.90;;;;;;5079892;28;20533;-81
2024/02/14 04:52:25;;;;;;;13.32;1.30;;;9.50;99.90;;;;;;5078736;28;20192;-81
2024/02/14 04:54:51;;;;;;;14.27;1.40;;;9.60;99.90;;;;;;5060554;28;20652;-81
2024/02/14 04:57:18;;;;;;;13.87;1.07;;;9.60;99.90;;;;;;5077892;28;20222;-81
2024/02/14 04:59:44;;;;;;;13.50;1.00;;;9.60;99.90;;;;;;5078001;28;20157;-81
2024/02/14 05:02:10;;;;;;;13.80;1.03;;;9.60;99.90;;;;;;5059952;28;20176;-82
2024/02/14 05:04:37;;;;;;;14.93;1.50;;;9.60;99.90;;;;;;5077849;28;20168;-82
2024/02/14 05:07:04;;;;;;;16.05;1.38;;;9.60;99.90;;;;;;5077554;28;20168;-81
2024/02/14 05:09:33;;;;;;;13.50;1.17;;;9.60;99.90;;;;;;5059589;28;20172;-82
2024/02/14 05:11:58;;;;;;;13.65;1.30;;;9.60;99.90;;;;;;5059009;28;20283;-81
2024/02/14 05:14:24;;;;;;;13.47;1.20;;;9.60;99.90;;;;;;5058895;28;20192;-82
2024/02/14 05:16:50;;;;;;;13.37;1.23;;;9.60;99.90;;;;;;5077384;28;20165;-81
2024/02/14 05:19:15;;;;;;;14.00;1.30;;;9.60;99.90;;;;;;5077101;28;20157;-82
2024/02/14 05:21:41;;;;;;;14.40;1.50;;;9.50;99.90;;;;;;5077026;28;20656;-82
2024/02/14 05:24:07;;;;;;;13.73;1.47;;;9.50;99.90;;;;;;5077715;28;20161;-82
2024/02/14 05:26:34;;;;;;;13.95;1.27;;;9.50;99.90;;;;;;5059206;28;20169;-81
2024/02/14 05:28:59;;;;;;;14.07;1.30;;;9.50;99.90;;;;;;5076590;28;20180;-81
2024/02/14 05:31:43;;;;;;;14.83;1.57;;;9.50;99.90;;;;;;5076433;28;20683;-81
2024/02/14 05:34:09;;;;;;;14.18;1.45;;;9.50;99.90;;;;;;5059308;28;20189;-81
2024/02/14 05:36:35;;;;;;;13.90;1.35;;;9.50;99.90;;;;;;5077641;28;20168;-82
2024/02/14 05:39:01;;;;;;;14.10;1.73;;;9.60;99.90;;;;;;5059375;28;20204;-82
2024/02/14 05:41:26;;;;;;;13.30;1.30;;;9.60;99.90;;;;;;5076029;28;20240;-82
2024/02/14 05:43:52;;;;;;;14.20;1.03;;;9.60;99.90;;;;;;5075959;28;20210;-81
2024/02/14 05:46:20;;;;;;;13.97;1.20;;;9.70;99.90;;;;;;5076418;28;20598;-82
2024/02/14 05:48:46;;;;;;;13.00;1.00;;;9.70;99.90;;;;;;5057458;28;20238;-81
2024/02/14 05:51:12;;;;;;;13.90;1.40;;;9.70;99.90;;;;;;5077050;28;20239;-81
2024/02/14 05:53:38;;;;;;;13.70;1.43;;;9.70;99.90;;;;;;5077279;28;20215;-81
2024/02/14 05:56:04;;;;;;;13.20;1.30;;;9.70;99.90;;;;;;5076395;28;20157;-81
2024/02/14 05:58:29;;;;;;;13.50;1.40;;;9.70;99.90;;;;;;5058319;28;20275;-80
2024/02/14 06:00:55;;;;;;;13.33;1.50;;;9.70;99.90;;;;;;5076198;28;20395;-81
2024/02/14 06:03:22;;;;;;;14.33;1.50;;;9.70;99.90;;;;;;5076067;28;20243;-81
2024/02/14 06:05:48;;;;;;;13.70;1.42;;;9.60;99.90;;;;;;5058796;28;20545;-81
2024/02/14 06:08:13;;;;;;;13.50;1.10;;;9.50;99.90;;;;;;5077513;28;20195;-80
2024/02/14 06:10:39;;;;;;;14.20;1.20;;;9.50;99.90;;;;;;5080531;28;20168;-81
2024/02/14 06:13:05;;;;;;;13.50;1.33;;;9.50;99.90;;;;;;5062368;28;20192;-81
2024/02/14 06:15:31;;;;;;;16.92;1.90;;;9.40;99.90;;;;;;5081070;28;20478;-81
2024/02/14 06:17:57;;;;;;;13.60;1.50;;;9.50;99.90;;;;;;5080486;28;20594;-81
2024/02/14 06:20:23;;;;;;;14.17;1.57;;;9.50;99.90;;;;;;5080677;28;20226;-81
2024/02/14 06:22:49;;;;;;;13.20;1.30;;;9.50;99.90;;;;;;5080592;28;20430;-81
2024/02/14 06:25:16;;;;;;;14.37;1.30;;;9.50;99.90;;;;;;5062269;28;20195;-80
2024/02/14 06:27:42;;;;;;;12.95;1.17;;;9.50;99.90;;;;;;5062086;28;20189;-81
2024/02/14 06:30:08;;;;;;;13.25;1.35;;;9.50;99.90;;;;;;5080855;28;20175;-81
2024/02/14 06:32:33;;;;;;;17.30;1.30;;;9.50;99.90;;;;;;5080226;28;20192;-81
2024/02/14 06:34:59;;;;;;;13.87;1.70;;;9.60;99.90;;;;;;5079937;28;20409;-80
2024/02/14 06:37:25;;;;;;;20.73;1.60;;;9.60;99.90;;;;;;5079622;28;20190;-81
2024/02/14 06:39:50;;;;;;;14.87;1.43;;;9.50;99.90;;;;;;5080100;28;20172;-81
2024/02/14 06:42:17;;;;;;;14.10;1.20;;;9.60;99.90;;;;;;5062661;28;20225;-81
2024/02/14 06:44:43;;;;;;;13.80;1.52;;;9.60;99.90;;;;;;5080611;28;20214;-81
2024/02/14 06:47:08;;;;;;;14.50;1.63;;;9.60;99.90;;;;;;5079457;28;20653;-81
2024/02/14 06:49:34;;;;;;;14.47;2.07;;;9.60;99.90;;;;;;5062686;28;20175;-81
2024/02/14 06:51:59;;;;;;;18.53;1.80;;;9.60;99.90;;;;;;5063357;28;20198;-81
2024/02/14 06:54:25;;;;;;;16.53;1.70;;;9.70;99.90;;;;;;5082408;28;20164;-81
2024/02/14 06:56:51;;;;;;;16.73;2.07;;;9.70;99.90;;;;;;5062550;28;20172;-81
2024/02/14 06:59:16;;;;;;;14.00;1.63;;;9.60;99.90;;;;;;5080626;28;20168;-81
2024/02/14 07:01:42;;;;;;;16.07;2.73;;;9.60;99.90;;;;;;5080992;28;20166;-81
2024/02/14 07:04:08;;;;;;;16.20;2.80;;;9.60;99.90;;;;;;5079959;28;20596;-81
2024/02/14 07:06:33;;;;;;;17.80;3.30;;;9.60;99.90;;;;;;5079495;28;20234;-81
2024/02/14 07:08:59;;;;;;;17.60;2.33;;;9.60;99.90;;;;;;5080276;28;20592;-81
2024/02/14 07:11:25;;;;;;;17.10;2.23;;;9.60;99.90;;;;;;5080396;28;20180;-81
2024/02/14 07:13:50;;;;;;;14.07;1.53;;;9.60;99.90;;;;;;5061257;28;20633;-81
2024/02/14 07:16:16;;;;;;;15.57;2.13;;;9.60;99.90;;;;;;5061060;28;20217;-81
2024/02/14 07:18:43;;;;;;;13.82;1.88;;;9.60;99.90;;;;;;5078882;28;20647;-81
2024/02/14 07:21:08;;;;;;;14.00;1.60;;;9.60;99.90;;;;;;5077934;28;20196;-81
2024/02/14 07:23:34;;;;;;;14.97;1.53;;;9.60;99.90;;;;;;5060625;28;20641;-81
2024/02/14 07:26:03;;;;;;;13.17;1.20;;;9.60;99.90;;;;;;5078593;28;20173;-81
2024/02/14 07:28:29;;;;;;;14.30;1.35;;;9.60;99.90;;;;;;5079064;28;20594;-81
2024/02/14 07:30:55;;;;;;;14.03;1.20;;;9.60;99.90;;;;;;5079108;28;20175;-81
2024/02/14 07:33:20;;;;;;;15.30;1.10;;;9.60;99.90;;;;;;5061062;28;20259;-81
2024/02/14 07:35:47;;;;;;;12.93;0.90;;;9.50;99.90;;;;;;5079192;28;20398;-81
2024/02/14 07:38:13;;;;;;;19.50;2.30;;;9.50;99.90;;;;;;5079161;28;20220;-81
2024/02/14 07:40:39;;;;;;;13.00;1.10;;;9.60;99.90;;;;;;5079509;28;20166;-81
2024/02/14 07:43:07;;;;;;;14.52;1.35;;;9.50;99.90;;;;;;5080451;28;20168;-81
2024/02/14 07:45:32;;;;;;;13.40;1.30;;;9.60;99.90;;;;;;5079967;28;20161;-81
2024/02/14 07:47:58;;;;;;;14.97;1.57;;;9.70;99.90;;;;;;5079365;28;20531;-81
2024/02/14 07:50:24;;;;;;;13.83;1.63;;;9.70;99.90;;;;;;5079609;28;20165;-81
2024/02/14 07:52:50;;;;;;;14.33;1.70;;;9.70;99.90;;;;;;5080432;28;20199;-82
2024/02/14 07:55:15;;;;;;;14.70;1.43;;;9.70;99.90;;;;;;5081936;28;20244;-82
2024/02/14 07:57:42;;;;;;;13.60;1.50;;;9.80;99.90;;;;;;5064681;28;20449;-82
2024/02/14 08:00:09;;;;;;;14.93;2.28;;;9.80;99.90;;;;;;5063659;28;20165;-82
2024/02/14 08:02:36;;;;;;;15.90;2.28;;;9.90;99.90;;;;;;5065457;28;20817;-81
2024/02/14 08:05:02;;;;;;;13.80;1.80;;;10.00;99.90;;;;;;5066501;28;20668;-81
2024/02/14 08:07:28;;;;;;;14.88;2.10;;;10.00;99.90;;;;;;5083689;28;20184;-83
2024/02/14 08:09:55;;;;;;;15.83;2.07;;;10.00;99.90;;;;;;5061767;28;20204;-82
2024/02/14 08:12:21;;;;;;;15.40;1.60;;;10.10;99.90;;;;;;5078231;28;20959;-82
2024/02/14 08:14:47;;;;;;;14.45;2.03;;;10.10;99.90;;;;;;5077444;28;20161;-82
2024/02/14 08:17:13;;;;;;;16.00;2.03;;;10.10;99.90;;;;;;5060264;28;20259;-82
2024/02/14 08:19:39;;;;;;;14.83;1.70;;;10.10;99.90;;;;;;5077819;28;20669;-82
2024/02/14 08:22:05;;;;;;;13.90;1.50;;;10.10;99.90;;;;;;5078543;28;20168;-83
2024/02/14 08:24:31;;;;;;;15.50;1.10;;;10.20;99.90;;;;;;5080488;28;20579;-82
2024/02/14 08:26:57;;;;;;;13.20;1.17;;;10.20;99.90;;;;;;5082230;28;20530;-82
2024/02/14 08:29:23;;;;;;;12.90;1.00;;;10.20;99.90;;;;;;5083108;28;20165;-82
2024/02/14 08:31:49;;;;;;;13.47;1.60;;;10.30;99.90;;;;;;5062737;28;20199;-82
2024/02/14 08:34:15;;;;;;;13.20;1.40;;;10.40;99.90;;;;;;5081614;28;20414;-82
2024/02/14 08:36:42;;;;;;;15.35;1.88;;;10.50;99.90;;;;;;5082562;28;20399;-82
2024/02/14 08:39:09;;;;;;;13.35;1.30;;;10.60;99.90;;;;;;5080885;28;20200;-82
2024/02/14 08:41:43;;;;;;;14.52;1.75;;;10.60;99.90;;;;;;5081894;28;20167;-83
2024/02/14 08:44:08;;;;;;;15.50;1.60;;;10.70;99.90;;;;;;5082220;28;20171;-82
2024/02/14 08:46:34;;;;;;;14.57;1.77;;;10.70;99.90;;;;;;5083544;28;20530;-82
2024/02/14 08:49:08;;;;;;;18.40;1.73;;;10.70;99.90;;;;;;5065211;28;20557;-83
2024/02/14 08:51:36;;;;;;;14.00;1.67;;;10.80;99.90;;;;;;5083810;28;20499;-82
2024/02/14 08:54:05;;;;;;;16.13;1.80;;;10.80;99.90;;;;;;5082653;28;20161;-83
2024/02/14 08:56:33;;;;;;;15.70;2.00;;;10.80;99.90;;;;;;5049033;28;20218;-82
2024/02/14 08:59:00;;;;;;;16.48;2.28;;;11.00;99.90;;;;;;5084296;28;20176;-82
2024/02/14 09:01:26;;;;;;;14.32;2.10;;;11.10;99.90;;;;;;5082326;28;20221;-82
2024/02/14 09:03:52;;;;;;;16.43;2.20;;;11.10;99.90;;;;;;5082159;28;20188;-82
2024/02/14 09:06:18;;;;;;;15.07;2.03;;;11.20;99.90;;;;;;5064096;28;20553;-82
2024/02/14 09:08:44;;;;;;;14.60;1.33;;;11.20;99.90;;;;;;5063310;28;20191;-82
2024/02/14 09:11:10;;;;;;;17.40;1.77;;;11.30;99.90;;;;;;5081204;28;20149;-82
2024/02/14 09:13:35;;;;;;;16.30;2.17;;;11.30;99.90;;;;;;5062528;28;20200;-82
2024/02/14 09:16:01;;;;;;;13.80;1.33;;;11.40;99.90;;;;;;5063489;28;20776;-82
2024/02/14 09:18:27;;;;;;;15.60;1.80;;;11.40;99.90;;;;;;5084060;28;20188;-82
2024/02/14 09:20:53;;;;;;;14.83;1.53;;;11.40;99.90;;;;;;5080875;28;20395;-82
2024/02/14 09:23:20;;;;;;;14.67;1.30;;;11.50;99.90;;;;;;5082318;28;20399;-82
2024/02/14 09:25:47;;;;;;;13.90;1.25;;;11.50;99.90;;;;;;5082120;28;20398;-82
2024/02/14 09:28:16;;;;;;;14.30;1.40;;;11.60;99.90;;;;;;5081639;28;20188;-82
2024/02/14 09:30:41;;;;;;;14.23;1.13;;;11.60;99.90;;;;;;5079781;28;20175;-82
2024/02/14 09:33:07;;;;;;;21.60;1.50;;;11.70;99.90;;;;;;5066986;28;20194;-83
2024/02/14 09:35:33;;;;;;;15.13;1.30;;;11.70;99.90;;;;;;5086557;28;20534;-84
2024/02/14 09:37:59;;;;;;;14.00;1.40;;;11.80;99.90;;;;;;5086234;28;20199;-83
2024/02/14 09:40:25;;;;;;;13.13;1.20;;;11.90;99.90;;;;;;5090871;28;20161;-83
2024/02/14 09:42:57;;;;;;;14.13;1.40;;;11.90;99.90;;;;;;5086400;28;20167;-82
2024/02/14 09:45:25;;;;;;;13.98;1.50;;;12.10;99.90;;;;;;5087317;28;20168;-83
2024/02/14 09:47:55;;;;;;;13.30;1.20;;;12.20;99.90;;;;;;5086964;28;20176;-83
2024/02/14 09:50:21;;;;;;;13.80;1.10;;;12.30;99.90;;;;;;5088841;28;20172;-82
2024/02/14 09:52:48;;;;;;;14.63;1.30;;;12.30;99.90;;;;;;5089095;28;20192;-83
2024/02/14 09:55:15;;;;;;;13.10;0.98;;;12.30;99.90;;;;;;5088821;28;20470;-82
2024/02/14 09:57:45;;;;;;;14.05;1.08;;;12.30;99.90;;;;;;5087735;28;20180;-83
2024/02/14 10:00:14;;;;;;;17.58;1.20;;;12.40;99.90;;;;;;5070526;28;20167;-84
2024/02/14 10:02:41;;;;;;;13.60;0.80;;;12.40;99.90;;;;;;5088238;28;20224;-82
2024/02/14 10:05:07;;;;;;;13.20;0.90;;;12.40;99.90;;;;;;5086477;28;20163;-82
2024/02/14 10:07:43;;;;;;;14.98;1.08;;;12.40;99.20;;;;;;5085956;28;20184;-82
2024/02/14 10:10:09;;;;;;;15.45;1.35;;;12.50;98.50;;;;;;5085104;28;20184;-81
2024/02/14 10:12:35;;;;;;;14.75;1.30;;;12.30;93.70;;;;;;5086370;28;20199;-82
2024/02/14 10:15:04;;;;;;;13.98;1.23;;;12.40;97.40;;;;;;5087640;28;20158;-82
2024/02/14 10:17:30;;;;;;;14.55;1.25;;;12.30;97.70;;;;;;5069642;28;20211;-82
2024/02/14 10:20:04;;;;;;;15.83;1.43;;;12.30;97.40;;;;;;5084857;28;20645;-82
2024/02/14 10:22:37;;;;;;;14.80;1.92;;;12.20;97.10;;;;;;5065883;28;20164;-82
2024/02/14 10:25:08;;;;;;;14.85;1.60;;;12.20;99.90;;;;;;5084602;28;20164;-84
2024/02/14 10:27:37;;;;;;;14.40;1.50;;;12.10;99.90;;;;;;5086644;28;20188;-83
2024/02/14 10:30:08;;;;;;;14.10;1.17;;;12.20;99.90;;;;;;5082202;28;20165;-83
2024/02/14 10:32:34;;;;;;;15.45;1.48;;;12.20;99.90;;;;;;5084950;28;20208;-83
2024/02/14 10:35:01;;;;;;;16.43;1.50;;;12.20;99.50;;;;;;5086778;28;20168;-83
2024/02/14 10:37:30;;;;;;;14.07;1.13;;;12.20;99.50;;;;;;5067109;28;20189;-83
2024/02/14 10:40:00;;;;;;;15.57;1.30;;;12.30;99.90;;;;;;5084378;28;20153;-83
2024/02/14 10:42:26;;;;;;;13.70;1.30;;;12.50;99.90;;;;;;5086250;28;20157;-83
2024/02/14 10:44:55;;;;;;;14.45;1.40;;;12.60;98.40;;;;;;5084760;28;20555;-84
2024/02/14 10:47:24;;;;;;;18.00;1.85;;;12.80;96.30;;;;;;5085022;28;20191;-84
2024/02/14 10:49:51;;;;;;;14.05;1.50;;;12.80;93.20;;;;;;5082924;28;20594;-84
2024/02/14 10:52:18;;;;;;;16.48;2.00;;;12.90;89.80;;;;;;5065707;28;20216;-83
2024/02/14 10:54:52;;;;;;;15.90;1.50;;;13.00;81.50;;;;;;5082452;28;20165;-83
2024/02/14 10:57:21;;;;;;;15.80;1.85;;;13.10;81.10;;;;;;5083503;28;20180;-83
2024/02/14 10:59:48;;;;;;;14.50;1.77;;;13.20;79.60;;;;;;5086493;28;20171;-84
2024/02/14 11:02:15;;;;;;;15.68;1.55;;;13.30;82.50;;;;;;5087180;28;20169;-83
2024/02/14 11:04:40;;;;;;;14.48;1.80;;;13.40;78.90;;;;;;5087815;28;20164;-84
2024/02/14 11:07:09;;;;;;;13.70;1.40;;;13.40;84.60;;;;;;5087540;28;20271;-84
2024/02/14 11:09:40;;;;;;;13.25;1.35;;;13.50;81.60;;;;;;5086097;28;20411;-83
2024/02/14 11:12:10;;;;;;;14.63;1.85;;;13.40;74.50;;;;;;5086153;28;20188;-83
2024/02/14 11:14:38;;;;;;;19.48;1.55;;;13.50;67.80;;;;;;5087150;28;20172;-83
2024/02/14 11:17:09;;;;;;;13.57;1.10;;;13.50;61.90;;;;;;5084862;28;20156;-83
2024/02/14 11:19:38;;;;;;;22.88;1.42;;;13.50;71.80;;;;;;5068620;28;20165;-83
2024/02/14 11:22:18;;;;;;;13.80;1.17;;;13.50;70.30;;;;;;5086629;28;20247;-84
2024/02/14 11:24:47;;;;;;;13.20;0.80;;;13.60;63.40;;;;;;5085493;28;20477;-83
2024/02/14 11:27:13;;;;;;;14.05;1.00;;;13.70;65.10;;;;;;5086669;28;20597;-83
2024/02/14 11:29:43;;;;;;;14.77;1.13;;;13.60;51.60;;;;;;5083148;28;20164;-83
2024/02/14 11:32:11;;;;;;;16.95;1.38;;;13.50;54.50;;;;;;5086228;28;20188;-85
2024/02/14 11:34:37;;;;;;;13.80;1.20;;;13.40;58.40;;;;;;5086595;28;20176;-84
2024/02/14 11:37:04;;;;;;;14.60;1.30;;;13.40;62.10;;;;;;5083597;28;20402;-84
2024/02/14 11:39:33;;;;;;;14.55;1.27;;;13.40;60.10;;;;;;5086025;28;20418;-83
2024/02/14 11:42:25;;;;;;;13.10;0.80;;;13.40;64.80;;;;;;5067409;28;20554;-84
2024/02/14 11:44:51;;;;;;;13.43;0.93;;;13.50;68.50;;;;;;5082028;28;20419;-84
2024/02/14 11:47:16;;;;;;;13.67;1.07;;;13.50;69.00;;;;;;5065789;28;20195;-84
2024/02/14 11:49:44;;;;;;;13.70;1.00;;;13.50;56.60;;;;;;5084728;28;20169;-83
2024/02/14 11:52:12;;;;;;;13.25;0.80;;;13.30;68.70;;;;;;5086483;28;20192;-83
2024/02/14 11:54:40;;;;;;;13.50;0.80;;;13.30;81.00;;;;;;5084376;28;20207;-83
2024/02/14 11:57:08;;;;;;;13.20;0.88;;;13.20;83.30;;;;;;5085247;28;20176;-83
2024/02/14 11:59:34;;;;;;;15.68;1.02;;;13.30;79.00;;;;;;5085525;28;20626;-83
2024/02/14 12:02:01;;;;;;;13.38;0.93;;;13.30;80.30;;;;;;5067014;28;20218;-83
2024/02/14 12:04:28;;;;;;;13.32;1.00;;;13.30;80.00;;;;;;5065129;28;20199;-83
2024/02/14 12:06:57;;;;;;;13.73;1.00;;;13.40;80.40;;;;;;5066067;28;20165;-83
2024/02/14 12:09:23;;;;;;;13.18;1.05;;;13.30;92.20;;;;;;5088464;28;20407;-83
2024/02/14 12:11:49;;;;;;;14.83;1.20;;;13.30;99.90;;;;;;5087897;28;20230;-84
2024/02/14 12:14:18;;;;;;;13.90;1.30;;;13.30;99.90;;;;;;5088266;28;20168;-84
2024/02/14 12:16:44;;;;;;;13.65;1.10;;;13.30;99.90;;;;;;5070555;28;20179;-84
2024/02/14 12:19:15;;;;;;;12.97;0.83;;;13.30;99.90;;;;;;5070888;28;20646;-83
2024/02/14 12:21:45;;;;;;;14.60;1.40;;;13.20;99.90;;;;;;5087978;28;20141;-84
2024/02/14 12:24:13;;;;;;;13.68;0.95;;;13.10;99.90;;;;;;5069966;28;20157;-84
2024/02/14 12:26:40;;;;;;;13.48;0.95;;;13.20;99.90;;;;;;5066732;28;20695;-83
2024/02/14 12:29:08;;;;;;;13.40;1.15;;;13.20;97.80;;;;;;5069842;28;20650;-83
2024/02/14 12:31:35;;;;;;;14.90;1.70;;;13.20;99.60;;;;;;5087131;28;20182;-84
2024/02/14 12:34:12;;;;;;;13.97;1.60;;;13.20;98.50;;;;;;5071975;28;20402;-85
2024/02/14 12:36:38;;;;;;;13.02;0.93;;;13.50;97.30;;;;;;5091185;28;20382;-84
2024/02/14 12:39:06;;;;;;;14.30;1.13;;;13.60;95.00;;;;;;5089121;28;20226;-84
2024/02/14 12:41:37;;;;;;;14.63;1.25;;;13.50;82.00;;;;;;5090426;28;20244;-85